Time;durP1;ratioP1;P1;durP2;ratioP2;P2;SDS_P1;SDS_P2;PMS_P1;PMS_P2;Temp;Humidity;BMP_temperature;BMP_pressure;BME280_temperature;BME280_humidity;BME280_pressure;Samples;Min_cycle;Max_cycle;Signal;HPM_P1;HPM_P2
2022/03/04 00:02:16;;;;;;;35.03;17.60;;;;;;;4.91;40.08;99634.53;4456327;32;33363;-77
2022/03/04 00:04:44;;;;;;;41.88;18.95;;;;;;;4.82;40.33;99643.72;4456256;32;34025;-76
2022/03/04 00:07:14;;;;;;;35.38;18.52;;;;;;;4.95;40.09;99646.75;4456252;32;34281;-76
2022/03/04 00:09:42;;;;;;;40.85;19.35;;;;;;;5.05;39.92;99651.16;4468818;32;34799;-77
2022/03/04 00:12:10;;;;;;;35.45;18.05;;;;;;;4.93;39.55;99647.94;4456003;32;33247;-77
2022/03/04 00:14:37;;;;;;;35.50;18.12;;;;;;;5.05;39.05;99646.56;4468763;32;33420;-77
2022/03/04 00:17:05;;;;;;;32.55;16.77;;;;;;;5.04;39.40;99655.75;4456240;32;35115;-77
2022/03/04 00:19:32;;;;;;;38.85;17.25;;;;;;;5.25;39.16;99641.53;4456083;32;33850;-77
2022/03/04 00:22:00;;;;;;;34.72;16.67;;;;;;;5.03;39.11;99648.59;4456079;32;33706;-77
2022/03/04 00:24:31;;;;;;;39.10;17.48;;;;;;;5.11;39.13;99661.34;4456096;32;33402;-76
2022/03/04 00:27:01;;;;;;;40.92;18.05;;;;;;;5.16;38.88;99650.78;4456008;32;35294;-77
2022/03/04 00:29:28;;;;;;;32.17;17.35;;;;;;;5.04;38.91;99655.75;4456306;32;33368;-77
2022/03/04 00:31:56;;;;;;;35.22;17.67;;;;;;;5.30;39.07;99644.56;4455829;32;31850;-77
2022/03/04 00:34:25;;;;;;;37.63;17.98;;;;;;;5.27;38.73;99640.34;4455915;32;34385;-77
2022/03/04 00:36:53;;;;;;;36.30;17.30;;;;;;;5.17;38.67;99641.59;4456199;32;33608;-76
2022/03/04 00:39:23;;;;;;;35.55;17.67;;;;;;;5.13;39.22;99640.25;4468665;32;33504;-77
2022/03/04 00:41:51;;;;;;;34.53;17.05;;;;;;;5.18;39.08;99629.69;4455941;32;34187;-77
2022/03/04 00:44:18;;;;;;;35.42;18.23;;;;;;;5.17;39.50;99628.84;4455789;32;33680;-77
2022/03/04 00:46:46;;;;;;;36.45;18.12;;;;;;;5.22;39.40;99634.56;4443085;32;33921;-77
2022/03/04 00:49:14;;;;;;;34.80;17.20;;;;;;;5.41;39.06;99630.59;4455625;32;33637;-77
2022/03/04 00:51:41;;;;;;;38.08;17.90;;;;;;;5.38;39.48;99638.25;4455769;32;33216;-77
2022/03/04 00:54:09;;;;;;;35.40;18.23;;;;;;;5.41;39.67;99627.87;4443031;32;32195;-77
2022/03/04 00:56:37;;;;;;;34.47;17.45;;;;;;;5.43;39.51;99639.41;4442772;32;33085;-77
2022/03/04 00:59:04;;;;;;;34.72;17.40;;;;;;;5.42;39.50;99631.44;4455708;32;33347;-77
2022/03/04 01:01:32;;;;;;;35.60;17.62;;;;;;;5.49;39.18;99632.41;4455744;32;33571;-77
2022/03/04 01:04:00;;;;;;;36.97;17.90;;;;;;;5.40;39.51;99633.47;4454920;32;32433;-77
2022/03/04 01:06:30;;;;;;;34.97;17.02;;;;;;;5.32;39.74;99634.38;4454420;32;33906;-77
2022/03/04 01:08:58;;;;;;;37.97;17.50;;;;;;;5.35;39.93;99630.44;4455779;32;33902;-77
2022/03/04 01:11:26;;;;;;;36.58;17.65;;;;;;;5.43;40.01;99635.84;4455461;32;33163;-77
2022/03/04 01:13:54;;;;;;;36.22;17.85;;;;;;;5.37;40.24;99628.41;4457199;32;34365;-77
2022/03/04 01:16:22;;;;;;;33.03;16.37;;;;;;;5.36;40.17;99627.53;4453708;32;35224;-77
2022/03/04 01:18:50;;;;;;;34.00;17.02;;;;;;;5.36;40.23;99627.53;4452792;32;34078;-77
2022/03/04 01:21:18;;;;;;;34.25;17.45;;;;;;;5.39;40.54;99627.19;4442327;32;31451;-77
2022/03/04 01:23:46;;;;;;;34.95;17.92;;;;;;;5.43;40.60;99622.25;4442731;32;33656;-77
2022/03/04 01:26:14;;;;;;;32.28;16.73;;;;;;;5.44;40.42;99627.50;4439145;32;35396;-77
2022/03/04 01:28:41;;;;;;;30.02;16.55;;;;;;;5.45;40.58;99621.03;4439684;32;33674;-77
2022/03/04 01:31:10;;;;;;;34.85;16.60;;;;;;;5.43;40.60;99617.66;4439012;32;33499;-77
2022/03/04 01:33:39;;;;;;;29.35;16.33;;;;;;;5.21;41.20;99611.09;4439783;32;32370;-77
2022/03/04 01:36:08;;;;;;;42.67;17.42;;;;;;;5.39;40.80;99616.31;4439674;32;34386;-77
2022/03/04 01:38:36;;;;;;;32.17;18.83;;;;;;;5.39;40.74;99621.75;4439657;32;32455;-77
2022/03/04 01:41:04;;;;;;;37.13;19.70;;;;;;;5.34;40.92;99617.88;4439848;32;34311;-77
2022/03/04 01:43:32;;;;;;;35.22;17.92;;;;;;;5.41;40.94;99614.25;4439999;32;35473;-77
2022/03/04 01:46:32;;;;;;;37.08;18.80;;;;;;;5.48;40.76;99612.53;4439517;32;32925;-77
2022/03/04 01:49:03;;;;;;;34.30;18.02;;;;;;;5.43;40.83;99614.94;4444622;32;34535;-77
2022/03/04 01:51:31;;;;;;;37.90;19.08;;;;;;;5.48;41.00;99614.41;4439603;32;32734;-78
2022/03/04 01:53:58;;;;;;;34.78;18.42;;;;;;;5.44;41.11;99607.63;4439554;32;32281;-77
2022/03/04 01:56:26;;;;;;;32.08;16.77;;;;;;;5.45;41.35;99614.75;4451956;32;34521;-78
2022/03/04 01:58:54;;;;;;;32.63;16.92;;;;;;;5.41;41.89;99608.81;4439617;32;33971;-77
2022/03/04 02:01:22;;;;;;;31.75;16.60;;;;;;;5.29;42.56;99615.66;4439222;32;33944;-77
2022/03/04 02:03:50;;;;;;;32.15;16.37;;;;;;;5.41;42.57;99613.41;4439494;32;33925;-77
2022/03/04 02:06:19;;;;;;;30.65;15.98;;;;;;;5.56;42.45;99620.66;4427005;32;34012;-77
2022/03/04 02:08:47;;;;;;;30.75;16.08;;;;;;;5.45;43.34;99621.03;4439303;32;34843;-77
2022/03/04 02:11:15;;;;;;;33.70;15.65;;;;;;;5.09;44.49;99614.41;4439337;32;33192;-77
2022/03/04 02:13:44;;;;;;;28.30;15.60;;;;;;;5.39;43.89;99620.91;4426579;32;32315;-77
2022/03/04 02:16:34;;;;;;;29.27;14.20;;;;;;;5.48;43.71;99626.13;4451797;32;34632;-77
2022/03/04 02:19:03;;;;;;;31.02;16.65;;;;;;;5.46;44.23;99622.75;4441123;32;34799;-77
2022/03/04 02:21:32;;;;;;;31.60;15.80;;;;;;;4.88;47.39;99613.13;4441565;32;32303;-77
2022/03/04 02:24:00;;;;;;;32.17;17.12;;;;;;;5.13;47.66;99621.22;4441455;32;33870;-77
2022/03/04 02:26:28;;;;;;;35.83;18.75;;;;;;;4.82;48.97;99616.53;4441769;32;34575;-77
2022/03/04 02:28:55;;;;;;;39.70;20.25;;;;;;;5.16;48.82;99620.84;4454545;32;34045;-77
2022/03/04 02:31:23;;;;;;;31.75;16.92;;;;;;;4.95;50.09;99619.56;4441299;32;34047;-77
2022/03/04 02:33:53;;;;;;;60.12;27.58;;;;;;;5.30;49.26;99622.81;4441372;32;33140;-77
2022/03/04 02:36:21;;;;;;;43.40;21.25;;;;;;;5.39;49.24;99619.03;4441583;32;35087;-77
2022/03/04 02:38:48;;;;;;;43.13;20.80;;;;;;;5.56;48.99;99623.38;4441368;32;34776;-77
2022/03/04 02:41:16;;;;;;;59.25;26.58;;;;;;;5.52;49.16;99629.34;4441416;32;33586;-77
2022/03/04 02:43:44;;;;;;;77.18;35.90;;;;;;;5.51;49.25;99630.38;4428597;32;32431;-77
2022/03/04 02:46:13;;;;;;;76.87;36.58;;;;;;;5.38;49.75;99641.81;4441242;32;33031;-77
2022/03/04 02:48:41;;;;;;;86.70;37.58;;;;;;;5.57;49.20;99635.94;4441539;32;33365;-78
2022/03/04 02:51:13;;;;;;;67.22;32.10;;;;;;;5.39;49.36;99632.63;4428594;32;32887;-77
2022/03/04 02:53:41;;;;;;;67.22;31.25;;;;;;;5.65;48.94;99632.34;4441761;32;33244;-77
2022/03/04 02:56:09;;;;;;;88.60;39.58;;;;;;;5.55;48.69;99632.56;4441061;32;32932;-77
2022/03/04 02:58:36;;;;;;;61.90;28.02;;;;;;;5.67;48.43;99638.44;4453900;32;34183;-77
2022/03/04 03:01:07;;;;;;;63.63;28.73;;;;;;;5.62;48.25;99633.53;4453798;32;31880;-77
2022/03/04 03:03:35;;;;;;;53.00;25.30;;;;;;;5.58;48.27;99634.06;4441254;32;34479;-78
2022/03/04 03:06:03;;;;;;;46.25;22.87;;;;;;;5.82;47.66;99633.94;4453817;32;35489;-77
2022/03/04 03:08:31;;;;;;;63.47;28.90;;;;;;;5.88;47.45;99624.16;4428493;32;33043;-77
2022/03/04 03:11:04;;;;;;;40.05;19.17;;;;;;;5.84;47.65;99645.50;4429546;32;32964;-77
2022/03/04 03:13:32;;;;;;;54.50;24.55;;;;;;;5.87;47.43;99647.84;4453816;32;33669;-77
2022/03/04 03:15:59;;;;;;;352.73;105.78;;;;;;;5.94;47.21;99637.94;4441021;32;32959;-77
2022/03/04 03:18:27;;;;;;;244.80;94.03;;;;;;;5.81;47.35;99653.19;4440960;32;32501;-77
2022/03/04 03:20:55;;;;;;;110.05;49.88;;;;;;;5.83;47.43;99645.69;4441453;32;34139;-77
2022/03/04 03:23:23;;;;;;;47.47;24.75;;;;;;;5.96;46.98;99640.50;4453846;32;33894;-77
2022/03/04 03:25:50;;;;;;;33.90;18.77;;;;;;;5.93;46.86;99641.69;4441181;32;35051;-77
2022/03/04 03:28:18;;;;;;;65.68;33.22;;;;;;;5.94;46.78;99642.56;4453698;32;33807;-77
2022/03/04 03:30:46;;;;;;;53.80;27.27;;;;;;;5.80;47.10;99643.31;4453160;32;33273;-77
2022/03/04 03:33:13;;;;;;;44.50;24.33;;;;;;;5.63;47.39;99646.12;4453636;32;34262;-77
2022/03/04 03:35:43;;;;;;;41.70;23.35;;;;;;;5.78;47.07;99650.81;4428273;32;33133;-77
2022/03/04 03:38:10;;;;;;;38.85;20.48;;;;;;;5.60;47.27;99651.09;4454012;32;34064;-77
2022/03/04 03:40:38;;;;;;;36.97;18.67;;;;;;;5.57;47.36;99663.19;4428502;32;32681;-77
2022/03/04 03:43:26;;;;;;;29.80;17.05;;;;;;;5.56;47.18;99660.63;4432512;32;33146;-77
2022/03/04 03:45:53;;;;;;;32.22;17.20;;;;;;;5.35;47.44;99665.81;4440861;32;32979;-77
2022/03/04 03:48:21;;;;;;;34.33;18.02;;;;;;;5.41;47.29;99663.25;4428330;32;32530;-77
2022/03/04 03:50:52;;;;;;;31.60;15.75;;;;;;;5.12;47.77;99661.16;4441254;32;33416;-77
2022/03/04 03:53:19;;;;;;;32.95;18.33;;;;;;;5.12;47.89;99666.59;4453719;32;33934;-77
2022/03/04 03:55:47;;;;;;;33.70;18.85;;;;;;;5.10;47.88;99660.50;4440807;32;33852;-77
2022/03/04 03:58:17;;;;;;;39.35;19.02;;;;;;;5.02;48.11;99662.38;4440642;32;32578;-77
2022/03/04 04:00:44;;;;;;;32.72;18.12;;;;;;;5.16;47.83;99657.06;4440729;32;33643;-77
2022/03/04 04:03:13;;;;;;;33.65;18.65;;;;;;;5.15;47.91;99670.84;4441001;32;33788;-77
2022/03/04 04:05:41;;;;;;;36.67;18.40;;;;;;;4.91;48.49;99656.28;4440901;32;33109;-77
2022/03/04 04:08:09;;;;;;;37.17;18.27;;;;;;;4.70;49.35;99655.97;4441591;32;34087;-77
2022/03/04 04:10:37;;;;;;;36.20;16.98;;;;;;;4.92;48.76;99657.97;4431003;32;31699;-77
2022/03/04 04:13:04;;;;;;;36.40;18.60;;;;;;;4.96;48.64;99659.34;4428966;32;32109;-77
2022/03/04 04:15:32;;;;;;;53.97;29.37;;;;;;;5.00;48.80;99661.69;4441720;32;32825;-77
2022/03/04 04:18:00;;;;;;;47.13;24.23;;;;;;;4.91;48.76;99656.28;4457155;32;34898;-77
2022/03/04 04:20:30;;;;;;;37.63;20.30;;;;;;;4.81;49.31;99652.91;4442000;32;33669;-77
2022/03/04 04:22:57;;;;;;;40.53;21.48;;;;;;;4.97;48.95;99654.75;4453878;32;34523;-77
2022/03/04 04:25:25;;;;;;;42.15;21.12;;;;;;;4.89;49.07;99661.03;4441478;32;32971;-77
2022/03/04 04:27:53;;;;;;;38.85;21.27;;;;;;;4.93;49.15;99669.72;4440626;32;32336;-77
2022/03/04 04:30:20;;;;;;;46.75;24.00;;;;;;;4.77;49.68;99669.72;4453419;32;33572;-77
2022/03/04 04:32:48;;;;;;;50.60;24.92;;;;;;;4.93;49.31;99667.84;4440687;32;32196;-77
2022/03/04 04:35:16;;;;;;;47.05;23.55;;;;;;;4.58;50.23;99660.06;4453422;32;34571;-77
2022/03/04 04:37:44;;;;;;;41.92;23.35;;;;;;;4.69;49.98;99664.31;4453292;32;33797;-77
2022/03/04 04:40:12;;;;;;;43.10;24.00;;;;;;;4.91;49.33;99669.88;4440626;32;33153;-77
2022/03/04 04:42:39;;;;;;;47.40;26.48;;;;;;;4.92;49.37;99671.56;4439200;32;33828;-76
2022/03/04 04:45:08;;;;;;;49.97;25.65;;;;;;;4.94;49.23;99672.25;4440425;32;35028;-77
2022/03/04 04:47:35;;;;;;;39.03;22.85;;;;;;;4.82;49.41;99676.34;4440491;32;32506;-77
2022/03/04 04:50:04;;;;;;;41.53;21.58;;;;;;;4.73;49.68;99682.81;4440396;32;32235;-77
2022/03/04 04:52:31;;;;;;;34.95;18.20;;;;;;;4.70;49.83;99688.59;4440463;32;34625;-77
2022/03/04 04:54:59;;;;;;;35.38;17.17;;;;;;;4.62;50.32;99696.75;4453035;32;34600;-77
2022/03/04 04:57:27;;;;;;;33.45;16.83;;;;;;;4.53;50.48;99695.09;4440075;32;32553;-77
2022/03/04 04:59:54;;;;;;;31.12;16.35;;;;;;;4.69;50.02;99695.06;4440717;32;33616;-77
2022/03/04 05:02:22;;;;;;;34.42;16.92;;;;;;;4.68;50.07;99706.94;4440438;32;33767;-77
2022/03/04 05:04:50;;;;;;;32.00;16.35;;;;;;;4.81;49.63;99715.44;4440385;32;34201;-77
2022/03/04 05:07:17;;;;;;;33.20;17.60;;;;;;;4.80;49.65;99718.31;4440210;32;33883;-77
2022/03/04 05:09:45;;;;;;;34.85;17.98;;;;;;;4.71;49.63;99719.34;4440540;32;34195;-77
2022/03/04 05:12:13;;;;;;;32.70;17.40;;;;;;;4.64;49.67;99724.63;4453083;32;34591;-77
2022/03/04 05:14:40;;;;;;;33.22;17.67;;;;;;;4.56;49.74;99716.47;4440113;32;33015;-77
2022/03/04 05:17:08;;;;;;;34.05;17.87;;;;;;;4.49;50.04;99721.75;4453212;32;33911;-77
2022/03/04 05:19:39;;;;;;;31.92;17.60;;;;;;;4.50;50.07;99728.03;4439762;32;33451;-77
2022/03/04 05:22:06;;;;;;;31.90;16.65;;;;;;;4.49;50.34;99726.34;4439741;32;32175;-79
2022/03/04 05:24:37;;;;;;;34.08;16.17;;;;;;;4.67;49.81;99729.72;4440357;32;34964;-75
2022/03/04 05:27:04;;;;;;;32.92;16.55;;;;;;;4.60;49.88;99725.97;4439576;32;32484;-75
2022/03/04 05:29:32;;;;;;;35.70;16.98;;;;;;;4.75;49.62;99728.88;4454079;32;34095;-75
2022/03/04 05:32:03;;;;;;;33.78;16.50;;;;;;;4.77;49.56;99745.84;4428502;32;32449;-75
2022/03/04 05:34:30;;;;;;;35.28;17.20;;;;;;;4.73;50.40;99742.63;4452162;32;32762;-72
2022/03/04 05:36:58;;;;;;;31.42;17.02;;;;;;;4.59;50.49;99743.31;4439775;32;33802;-75
2022/03/04 05:39:26;;;;;;;30.85;16.83;;;;;;;4.79;50.04;99743.81;4440006;32;33252;-74
2022/03/04 05:41:53;;;;;;;29.25;16.60;;;;;;;4.92;53.05;99741.44;4452364;32;33285;-75
2022/03/04 05:44:21;;;;;;;31.35;17.40;;;;;;;4.99;52.33;99739.72;4440846;32;33987;-75
2022/03/04 05:46:49;;;;;;;31.25;17.02;;;;;;;4.93;50.99;99752.13;4454348;32;34860;-74
2022/03/04 05:49:17;;;;;;;34.67;17.27;;;;;;;4.88;50.64;99761.81;4426917;32;32897;-75
2022/03/04 05:51:44;;;;;;;30.85;17.58;;;;;;;5.01;50.80;99758.59;4452638;32;33763;-75
2022/03/04 05:54:12;;;;;;;31.42;18.37;;;;;;;5.08;50.55;99767.75;4441366;32;34171;-75
2022/03/04 05:56:39;;;;;;;36.88;17.65;;;;;;;4.87;50.85;99771.84;4455712;32;34159;-75
2022/03/04 05:59:08;;;;;;;35.38;18.10;;;;;;;4.90;50.75;99773.37;4441819;32;31413;-74
2022/03/04 06:01:38;;;;;;;33.28;17.15;;;;;;;4.84;51.29;99768.62;4454519;32;33436;-74
2022/03/04 06:04:06;;;;;;;36.17;17.48;;;;;;;5.12;50.37;99767.25;4454427;32;34684;-75
2022/03/04 06:06:36;;;;;;;35.05;18.70;;;;;;;5.04;50.53;99774.56;4428773;32;32541;-75
2022/03/04 06:09:03;;;;;;;34.45;17.67;;;;;;;5.05;50.84;99776.28;4457390;32;34135;-75
2022/03/04 06:11:32;;;;;;;42.80;22.83;;;;;;;5.14;50.53;99781.53;4454351;32;33613;-75
2022/03/04 06:14:03;;;;;;;48.10;25.65;;;;;;;5.24;50.31;99779.44;4441547;32;33953;-75
2022/03/04 06:16:30;;;;;;;38.67;20.05;;;;;;;5.24;50.25;99782.16;4441530;32;33581;-73
2022/03/04 06:18:58;;;;;;;32.58;18.25;;;;;;;5.40;49.99;99788.59;4467857;32;33508;-75
2022/03/04 06:21:26;;;;;;;46.42;22.75;;;;;;;5.38;50.62;99798.81;4469581;32;32718;-75
2022/03/04 06:23:55;;;;;;;75.95;36.20;;;;;;;5.35;50.49;99789.13;4457259;32;34701;-75
2022/03/04 06:26:23;;;;;;;75.53;34.40;;;;;;;5.20;50.72;99808.00;4471537;32;34245;-75
2022/03/04 06:28:51;;;;;;;50.45;23.75;;;;;;;5.15;50.75;99798.69;4472031;32;33655;-75
2022/03/04 06:31:18;;;;;;;36.45;20.42;;;;;;;5.35;50.77;99793.72;4457607;32;33740;-74
2022/03/04 06:33:48;;;;;;;38.60;19.98;;;;;;;5.22;51.04;99800.53;4469919;32;34351;-76
2022/03/04 06:36:16;;;;;;;40.72;21.48;;;;;;;5.42;50.20;99803.75;4457041;32;33246;-75
2022/03/04 06:38:45;;;;;;;36.85;18.87;;;;;;;5.55;49.98;99811.37;4469858;32;33446;-75
2022/03/04 06:41:14;;;;;;;120.45;48.83;;;;;;;5.70;49.75;99820.53;4469713;32;34626;-75
2022/03/04 06:43:47;;;;;;;199.52;70.05;;;;;;;5.67;49.88;99820.88;4469760;32;34325;-75
2022/03/04 06:46:18;;;;;;;;;;;;;;;5.76;49.65;99824.41;4471195;32;34829;-75
2022/03/04 06:48:48;;;;;;;86.95;35.60;;;;;;;5.71;49.89;99815.94;4469751;32;31704;-75
2022/03/04 06:51:18;;;;;;;88.22;40.47;;;;;;;5.69;50.05;99815.25;4457073;32;34472;-76
2022/03/04 06:53:47;;;;;;;68.55;34.20;;;;;;;5.78;49.93;99814.22;4457024;32;33032;-73
2022/03/04 06:56:20;;;;;;;67.75;37.38;;;;;;;5.84;49.97;99818.94;4456859;32;34014;-75
2022/03/04 06:58:51;;;;;;;56.10;30.12;;;;;;;5.97;49.55;99811.06;4456665;32;32300;-74
2022/03/04 07:01:19;;;;;;;55.83;28.10;;;;;;;6.55;64.01;99816.03;4469564;32;34232;-75
2022/03/04 07:03:48;;;;;;;49.60;26.67;;;;;;;6.63;57.16;99823.31;4469386;32;34321;-75
2022/03/04 07:06:20;;;;;;;51.60;26.65;;;;;;;6.68;53.31;99829.09;4469120;32;34018;-74
2022/03/04 07:08:48;;;;;;;43.92;25.25;;;;;;;6.68;50.80;99820.91;4469676;32;33454;-75
2022/03/04 07:11:18;;;;;;;48.42;25.52;;;;;;;6.62;49.74;99816.16;4456905;32;32268;-74
2022/03/04 07:13:46;;;;;;;49.55;27.65;;;;;;;6.69;48.74;99830.78;4469522;32;34271;-75
2022/03/04 07:16:16;;;;;;;54.63;30.30;;;;;;;6.59;48.67;99832.87;4469468;32;33840;-75
2022/03/04 07:18:47;;;;;;;53.83;27.70;;;;;;;6.69;48.49;99832.66;4469538;32;33497;-74
2022/03/04 07:21:18;;;;;;;44.75;24.63;;;;;;;6.82;48.22;99831.03;4470690;32;34184;-75
2022/03/04 07:23:52;;;;;;;42.92;23.83;;;;;;;6.84;48.09;99833.59;4469633;32;34574;-75
2022/03/04 07:26:19;;;;;;;47.97;26.73;;;;;;;6.87;48.03;99841.41;4469434;32;34195;-75
2022/03/04 07:28:50;;;;;;;62.67;30.75;;;;;;;6.87;48.25;99842.25;4469480;32;33409;-74
2022/03/04 07:31:20;;;;;;;48.22;27.85;;;;;;;6.94;48.02;99840.50;4470682;32;33745;-74
2022/03/04 07:33:48;;;;;;;47.50;25.58;;;;;;;7.05;47.99;99844.69;4470568;32;34559;-75
2022/03/04 07:36:15;;;;;;;43.63;24.15;;;;;;;7.21;47.34;99839.06;4463312;32;34014;-74
2022/03/04 07:38:44;;;;;;;45.95;23.67;;;;;;;6.90;47.25;99847.34;4469326;32;32069;-75
2022/03/04 07:41:12;;;;;;;45.03;21.95;;;;;;;6.89;47.02;99844.81;4469528;32;34461;-74
2022/03/04 07:43:39;;;;;;;42.05;21.55;;;;;;;6.90;46.77;99852.81;4469493;32;35269;-74
2022/03/04 07:46:12;;;;;;;43.40;23.17;;;;;;;6.90;46.86;99852.81;4470583;32;34712;-75
2022/03/04 07:48:42;;;;;;;43.95;21.87;;;;;;;6.19;47.54;99862.06;4456623;32;31936;-75
2022/03/04 07:51:13;;;;;;;38.03;21.02;;;;;;;6.37;47.47;99852.81;4469779;32;33904;-75
2022/03/04 07:53:40;;;;;;;33.67;19.08;;;;;;;6.22;47.70;99859.00;4468660;32;34124;-75
2022/03/04 07:56:10;;;;;;;38.22;19.33;;;;;;;6.47;47.38;99861.63;4470248;32;33797;-75
2022/03/04 07:58:38;;;;;;;36.97;19.52;;;;;;;6.45;47.36;99859.06;4460774;32;33443;-75
2022/03/04 08:01:05;;;;;;;54.60;28.77;;;;;;;6.32;47.84;99872.41;4454758;32;34243;-75
2022/03/04 08:03:48;;;;;;;47.55;26.85;;;;;;;5.81;49.97;99876.50;4430992;32;32767;-75
2022/03/04 08:06:16;;;;;;;40.83;22.10;;;;;;;5.98;50.47;99882.75;4453071;32;34074;-75
2022/03/04 08:08:44;;;;;;;49.53;24.77;;;;;;;6.22;50.49;99879.94;4448864;32;33494;-74
2022/03/04 08:11:11;;;;;;;44.20;24.35;;;;;;;6.25;50.00;99879.59;4470436;32;34564;-74
2022/03/04 08:13:39;;;;;;;42.55;22.42;;;;;;;6.20;50.62;99887.44;4468969;32;33130;-74
2022/03/04 08:16:13;;;;;;;36.97;20.08;;;;;;;6.18;50.87;99890.34;4468557;32;33986;-74
2022/03/04 08:18:44;;;;;;;39.97;21.58;;;;;;;6.24;51.16;99889.66;4468803;32;33457;-74
2022/03/04 08:21:14;;;;;;;38.72;20.23;;;;;;;6.27;51.11;99885.72;4469860;32;34553;-74
2022/03/04 08:23:43;;;;;;;35.70;20.37;;;;;;;6.33;51.19;99892.34;4455064;32;35378;-75
2022/03/04 08:26:10;;;;;;;44.75;24.67;;;;;;;6.25;51.52;99890.50;4470043;32;34207;-74
2022/03/04 08:28:43;;;;;;;95.62;46.65;;;;;;;6.41;51.08;99895.03;4468912;32;33376;-75
2022/03/04 08:31:11;;;;;;;100.40;46.80;;;;;;;5.98;51.42;99894.50;4469127;32;34534;-74
2022/03/04 08:33:44;;;;;;;204.13;86.95;;;;;;;6.06;51.18;99902.66;4456431;32;34633;-74
2022/03/04 08:36:13;;;;;;;46.40;26.50;;;;;;;5.80;52.97;99897.44;4469080;32;33733;-74
2022/03/04 08:38:43;;;;;;;51.45;28.17;;;;;;;6.04;51.97;99899.25;4468822;32;33483;-75
2022/03/04 08:41:11;;;;;;;142.43;67.43;;;;;;;6.26;51.76;99903.94;4468876;32;33846;-75
2022/03/04 08:43:46;;;;;;;161.95;76.40;;;;;;;6.10;52.07;99909.44;4452874;32;35162;-75
2022/03/04 08:46:15;;;;;;;55.22;29.85;;;;;;;6.12;51.97;99901.94;4441969;32;34172;-75
2022/03/04 08:48:45;;;;;;;44.10;24.67;;;;;;;6.42;51.50;99905.75;4454494;32;34489;-74
2022/03/04 08:51:14;;;;;;;42.22;22.58;;;;;;;6.43;51.52;99910.19;4441053;32;32328;-75
2022/03/04 08:53:42;;;;;;;40.85;23.50;;;;;;;6.54;51.24;99906.19;4453266;32;34410;-75
2022/03/04 08:56:09;;;;;;;40.15;24.00;;;;;;;6.70;50.93;99910.72;4452965;32;34063;-75
2022/03/04 08:58:39;;;;;;;39.40;21.15;;;;;;;6.59;51.53;99912.81;4452784;32;33531;-75
2022/03/04 09:01:08;;;;;;;38.92;21.40;;;;;;;6.74;51.01;99917.53;4440370;32;33355;-75
2022/03/04 09:03:42;;;;;;;35.67;20.58;;;;;;;6.98;50.41;99902.87;4452060;32;34460;-74
2022/03/04 09:06:11;;;;;;;43.95;21.62;;;;;;;7.16;49.90;99912.44;4453176;32;34120;-74
2022/03/04 09:08:39;;;;;;;38.17;21.33;;;;;;;7.24;49.25;99911.53;4452967;32;33434;-74
2022/03/04 09:11:06;;;;;;;39.60;20.15;;;;;;;7.28;49.01;99915.59;4454040;32;33442;-77
2022/03/04 09:13:35;;;;;;;39.08;21.42;;;;;;;7.30;48.81;99910.81;4440257;32;34259;-75
2022/03/04 09:16:04;;;;;;;38.97;20.65;;;;;;;7.48;48.30;99902.31;4440172;32;32886;-75
2022/03/04 09:18:34;;;;;;;36.15;20.85;;;;;;;7.43;48.60;99910.22;4452798;32;33496;-75
2022/03/04 09:21:04;;;;;;;41.95;22.20;;;;;;;7.70;47.94;99911.50;4440100;32;34550;-75
2022/03/04 09:23:34;;;;;;;40.58;20.98;;;;;;;7.62;47.54;99908.84;4451041;32;35087;-75
2022/03/04 09:26:01;;;;;;;34.35;18.67;;;;;;;7.91;46.91;99903.41;4439843;32;34317;-75
2022/03/04 09:28:33;;;;;;;37.33;19.08;;;;;;;7.76;46.75;99910.78;4455283;32;34108;-75
2022/03/04 09:31:06;;;;;;;;;;;;;;;8.00;46.31;99912.38;4455010;32;33665;-75
2022/03/04 09:33:34;;;;;;;38.30;21.17;;;;;;;7.83;45.55;99918.00;4442061;32;32807;-75
2022/03/04 09:36:02;;;;;;;46.03;24.50;;;;;;;7.82;46.36;99915.47;4454633;32;33894;-75
2022/03/04 09:38:29;;;;;;;52.30;26.83;;;;;;;8.01;45.71;99923.13;4441879;32;32585;-75
2022/03/04 09:40:59;;;;;;;44.03;24.23;;;;;;;8.09;45.93;99925.78;4454800;32;34386;-75
2022/03/04 09:43:26;;;;;;;42.62;22.27;;;;;;;7.95;45.27;99934.81;4441782;32;35263;-75
2022/03/04 09:45:56;;;;;;;40.70;19.30;;;;;;;8.02;45.37;99927.56;4441708;32;34936;-74
2022/03/04 09:48:24;;;;;;;32.55;17.52;;;;;;;7.91;44.88;99931.59;4454898;32;33564;-75
2022/03/04 09:50:53;;;;;;;31.50;17.37;;;;;;;7.38;47.08;99932.59;4454953;32;33781;-74
2022/03/04 09:53:21;;;;;;;33.72;17.67;;;;;;;7.86;45.01;99925.00;4454308;32;33819;-75
2022/03/04 09:55:48;;;;;;;35.10;18.73;;;;;;;7.78;44.79;99927.84;4454771;32;33875;-75
2022/03/04 09:58:18;;;;;;;34.90;18.73;;;;;;;7.96;44.45;99928.31;4454313;32;33950;-75
2022/03/04 10:00:46;;;;;;;32.58;18.50;;;;;;;8.27;44.57;99926.28;4441682;32;32285;-75
2022/03/04 10:03:29;;;;;;;31.10;18.12;;;;;;;8.55;43.95;99920.13;4454675;32;35315;-75
2022/03/04 10:06:04;;;;;;;36.75;18.37;;;;;;;7.80;44.99;99921.12;4455578;32;34717;-75
2022/03/04 10:08:43;;;;;;;40.78;19.92;;;;;;;8.03;45.34;99918.31;4460501;32;33455;-74
2022/03/04 10:11:11;;;;;;;36.70;20.30;;;;;;;8.55;44.37;99918.25;4469808;32;33616;-74
2022/03/04 10:13:54;;;;;;;47.95;21.70;;;;;;;8.93;43.57;99918.09;4456761;32;34689;-75
2022/03/04 10:16:28;;;;;;;34.03;19.77;;;;;;;8.98;46.36;99909.31;4469892;32;33993;-74
2022/03/04 10:19:09;;;;;;;35.15;19.12;;;;;;;9.06;43.60;99903.72;4470930;32;33619;-75
2022/03/04 10:22:04;;;;;;;37.47;22.77;;;;;;;9.31;43.34;99904.16;4471240;32;34423;-75
2022/03/04 10:24:31;;;;;;;38.72;22.92;;;;;;;9.24;42.55;99910.41;4454243;32;32949;-75
2022/03/04 10:27:03;;;;;;;37.25;19.27;;;;;;;9.26;42.24;99902.00;4470781;32;33844;-74
2022/03/04 10:29:49;;;;;;;37.72;22.33;;;;;;;9.43;42.71;99911.66;4469725;32;32938;-75
2022/03/04 10:32:24;;;;;;;44.20;25.98;;;;;;;8.52;43.24;99910.41;4456734;32;33897;-75
2022/03/04 10:34:58;;;;;;;43.10;23.58;;;;;;;8.99;42.55;99911.00;4456921;32;33874;-75
2022/03/04 10:37:51;;;;;;;42.62;21.77;;;;;;;9.04;42.45;99901.16;4469519;32;33656;-75
2022/03/04 10:40:19;;;;;;;37.53;21.45;;;;;;;9.11;42.76;99904.78;4469451;32;33861;-73
2022/03/04 10:42:52;;;;;;;41.10;22.55;;;;;;;8.75;42.96;99906.72;4469503;32;33673;-76
2022/03/04 10:45:23;;;;;;;42.17;22.70;;;;;;;8.24;43.83;99906.66;4456557;32;32927;-74
2022/03/04 10:47:52;;;;;;;39.03;22.92;;;;;;;8.40;43.80;99895.56;4469863;32;34861;-75
2022/03/04 10:50:27;;;;;;;45.80;24.80;;;;;;;8.74;43.63;99903.13;4456985;32;31744;-74
2022/03/04 10:52:59;;;;;;;70.63;36.57;;;;;;;8.72;43.88;99907.94;4469839;32;33973;-75
2022/03/04 10:55:47;;;;;;;48.53;26.30;;;;;;;9.03;43.76;99901.34;4466181;32;110847;-75
2022/03/04 10:58:29;;;;;;;61.58;34.22;;;;;;;9.04;43.21;99903.91;4447620;32;33816;-74
2022/03/04 11:01:02;;;;;;;59.70;30.23;;;;;;;8.42;45.25;99903.56;4469715;32;33337;-74
2022/03/04 11:03:36;;;;;;;46.00;26.33;;;;;;;9.14;46.11;99901.66;4469623;32;33733;-73
2022/03/04 11:06:08;;;;;;;41.60;24.17;;;;;;;9.05;44.66;99902.00;4456105;32;34428;-74
2022/03/04 11:08:36;;;;;;;43.97;24.83;;;;;;;8.31;45.12;99906.75;4470596;32;33826;-75
2022/03/04 11:11:05;;;;;;;43.17;24.60;;;;;;;8.81;44.56;99895.84;4469574;32;34173;-74
2022/03/04 11:13:34;;;;;;;52.22;26.33;;;;;;;9.12;44.04;99894.69;4469552;32;33268;-74
2022/03/04 11:16:06;;;;;;;51.45;30.75;;;;;;;8.82;44.86;99899.44;4470676;32;34453;-78
2022/03/04 11:18:34;;;;;;;40.90;25.05;;;;;;;8.10;46.47;99907.50;4456567;32;32566;-75
2022/03/04 11:21:04;;;;;;;48.50;25.45;;;;;;;8.20;45.68;99910.81;4470658;32;33333;-76
2022/03/04 11:23:37;;;;;;;40.78;23.42;;;;;;;8.91;44.70;99899.12;4469438;32;34541;-75
2022/03/04 11:26:23;;;;;;;40.75;24.02;;;;;;;8.38;45.19;99899.53;4469078;32;34431;-75
2022/03/04 11:28:52;;;;;;;;;;;;;;;8.66;45.07;99889.56;4456801;32;34071;-75
2022/03/04 11:31:23;;;;;;;41.17;22.95;;;;;;;9.10;43.85;99892.16;4470611;32;33374;-75
2022/03/04 11:33:58;;;;;;;44.28;23.20;;;;;;;9.12;43.85;99900.16;4469515;32;33639;-74
2022/03/04 11:36:34;;;;;;;48.00;24.52;;;;;;;8.87;44.53;99894.22;4469955;32;34275;-75
2022/03/04 11:39:05;;;;;;;44.50;24.65;;;;;;;8.50;45.17;99897.97;4469773;32;33689;-75